createdAt,value
2018-08-09T00:01:10.536Z,100076.31
2018-08-09T00:03:39.093Z,100073.52
2018-08-09T00:06:07.612Z,100071.39
2018-08-09T00:08:36.020Z,100064.05
2018-08-09T00:11:04.879Z,100060.61
2018-08-09T00:13:33.275Z,100063.80
2018-08-09T00:16:01.727Z,100060.14
2018-08-09T00:18:30.348Z,100063.45
2018-08-09T00:20:58.844Z,100066.91
2018-08-09T00:23:27.249Z,100065.94
2018-08-09T00:25:55.686Z,100070.73
2018-08-09T00:28:24.087Z,100071.23
2018-08-09T00:30:52.477Z,100063.23
2018-08-09T00:33:20.898Z,100062.80
2018-08-09T00:35:49.278Z,100061.23
2018-08-09T00:38:17.691Z,100061.68
2018-08-09T00:40:46.283Z,100057.17
2018-08-09T00:43:14.695Z,100052.62
2018-08-09T00:45:43.087Z,100043.05
2018-08-09T00:48:11.600Z,100049.31
2018-08-09T00:50:40.079Z,100035.06
2018-08-09T00:53:08.626Z,100028.48
2018-08-09T00:58:15.378Z,100029.23
2018-08-09T01:00:43.899Z,100030.08
2018-08-09T01:03:12.295Z,100034.08
2018-08-09T01:05:40.778Z,100035.44
2018-08-09T01:08:09.446Z,100036.05
2018-08-09T01:10:37.855Z,100045.52
2018-08-09T01:13:06.706Z,100039.88
2018-08-09T01:15:35.249Z,100034.24
2018-08-09T01:18:03.711Z,100035.53
2018-08-09T01:20:32.111Z,100048.58
2018-08-09T01:23:00.723Z,100050.98
2018-08-09T01:25:29.314Z,100037.03
2018-08-09T01:27:57.719Z,100040.25
2018-08-09T01:30:26.534Z,100040.77
2018-08-09T01:32:55.024Z,100030.22
2018-08-09T01:35:23.463Z,100032.61
2018-08-09T01:37:52.153Z,100032.64
2018-08-09T01:40:20.540Z,100035.39
2018-08-09T01:43:00.343Z,100032.23
2018-08-09T01:45:28.800Z,100027.30
2018-08-09T01:47:57.251Z,100018.54
2018-08-09T01:50:25.836Z,100018.69
2018-08-09T01:52:54.247Z,100017.65
2018-08-09T01:55:22.639Z,100006.44
2018-08-09T01:57:51.243Z,100000.47
2018-08-09T02:00:19.667Z,100000.50
2018-08-09T02:02:48.167Z,100002.41
2018-08-09T02:05:16.891Z,100002.72
2018-08-09T02:07:45.350Z,100005.28
2018-08-09T02:10:13.759Z,100005.03
2018-08-09T02:12:42.253Z,100001.84
2018-08-09T02:15:10.639Z,99994.88
2018-08-09T02:17:39.098Z,99990.26
2018-08-09T02:20:07.755Z,99988.48
2018-08-09T02:22:36.171Z,99986.47
2018-08-09T02:25:05.075Z,99978.78
2018-08-09T02:27:33.801Z,99968.10
2018-08-09T02:30:02.176Z,99961.56
2018-08-09T02:32:30.551Z,99960.23
2018-08-09T02:34:59.098Z,99963.20
2018-08-09T02:37:27.484Z,99973.73
2018-08-09T02:39:56.067Z,99986.58
2018-08-09T02:42:24.591Z,99978.71
2018-08-09T02:44:52.983Z,99973.25
2018-08-09T02:47:21.378Z,99976.88
2018-08-09T02:49:49.875Z,99986.68
2018-08-09T02:52:18.259Z,99993.30
2018-08-09T02:54:46.714Z,99983.25
2018-08-09T02:57:15.375Z,99984.73
2018-08-09T02:59:43.795Z,99976.58
2018-08-09T03:02:12.219Z,99975.16
2018-08-09T03:04:40.616Z,99976.23
2018-08-09T03:07:09.423Z,99969.70
2018-08-09T03:09:37.912Z,99969.00
2018-08-09T03:12:06.543Z,99966.05
2018-08-09T03:14:34.954Z,99965.41
2018-08-09T03:17:03.403Z,99972.30
2018-08-09T03:19:31.855Z,99973.93
2018-08-09T03:22:00.336Z,99976.77
2018-08-09T03:24:28.960Z,99975.59
2018-08-09T03:26:57.607Z,99966.42
2018-08-09T03:29:26.069Z,99958.65
2018-08-09T03:31:54.539Z,99961.53
2018-08-09T03:34:23.052Z,99959.45
2018-08-09T03:36:51.522Z,99951.17
2018-08-09T03:39:19.907Z,99948.56
2018-08-09T03:41:48.443Z,99951.27
2018-08-09T03:44:16.931Z,99949.80
2018-08-09T03:46:45.411Z,99948.05
2018-08-09T03:49:14.163Z,99945.46
2018-08-09T03:51:42.571Z,99953.11
2018-08-09T03:54:11.079Z,99949.30
2018-08-09T03:56:39.754Z,99951.62
2018-08-09T03:59:08.359Z,99955.03
2018-08-09T04:01:36.855Z,99949.44
2018-08-09T04:04:05.391Z,99948.20
2018-08-09T04:06:33.860Z,99945.39
2018-08-09T04:09:02.323Z,99938.54
2018-08-09T04:11:31.016Z,99943.77
2018-08-09T04:13:59.547Z,99951.84
2018-08-09T04:16:27.931Z,99951.54
2018-08-09T04:18:56.435Z,99958.56
2018-08-09T04:21:24.814Z,99954.52
2018-08-09T04:23:53.323Z,99964.59
2018-08-09T04:26:22.031Z,99969.50
2018-08-09T04:28:50.524Z,99968.19
2018-08-09T04:31:19.117Z,99967.18
2018-08-09T04:33:48.091Z,99968.59
2018-08-09T04:36:16.643Z,99963.14
2018-08-09T04:38:45.115Z,99969.08
2018-08-09T04:41:13.631Z,99965.50
2018-08-09T04:43:42.080Z,99977.36
2018-08-09T04:46:10.607Z,99972.35
2018-08-09T04:48:39.183Z,99984.03
2018-08-09T04:51:07.655Z,99991.39
2018-08-09T04:53:36.060Z,99985.48
2018-08-09T04:56:04.872Z,99987.34
2018-08-09T04:58:33.339Z,99989.75
2018-08-09T05:01:01.900Z,99987.45
2018-08-09T05:03:31.039Z,99977.23
2018-08-09T05:05:59.438Z,99970.45
2018-08-09T05:08:27.875Z,99972.34
2018-08-09T05:10:56.603Z,99969.95
2018-08-09T05:13:25.155Z,99971.80
2018-08-09T05:15:53.626Z,99973.09
2018-08-09T05:18:22.511Z,99971.98
2018-08-09T05:20:51.004Z,99967.95
2018-08-09T05:23:19.460Z,99957.09
2018-08-09T05:25:48.187Z,99954.41
2018-08-09T05:28:16.567Z,99946.42
2018-08-09T05:30:45.007Z,99941.86
2018-08-09T05:33:13.516Z,99948.27
2018-08-09T05:35:41.975Z,99947.77
2018-08-09T05:38:10.475Z,99954.30
2018-08-09T05:40:39.358Z,99943.59
2018-08-09T05:43:07.771Z,99936.33
2018-08-09T05:45:36.439Z,99942.23
2018-08-09T05:48:05.251Z,99943.97
2018-08-09T05:50:33.764Z,99945.06
2018-08-09T05:53:02.334Z,99941.27
2018-08-09T05:55:30.904Z,99938.32
2018-08-09T05:57:59.486Z,99935.95
2018-08-09T06:00:28.020Z,99925.52
2018-08-09T06:02:56.617Z,99924.05
2018-08-09T06:05:25.032Z,99932.27
2018-08-09T06:07:53.539Z,99920.97
2018-08-09T06:10:22.195Z,99921.45
2018-08-09T06:12:50.626Z,99917.78
2018-08-09T06:15:19.126Z,99916.16
2018-08-09T06:17:47.665Z,99912.23
2018-08-09T06:20:16.058Z,99903.80
2018-08-09T06:22:44.671Z,99908.31
2018-08-09T06:25:13.122Z,99906.74
2018-08-09T06:27:41.611Z,99897.43
2018-08-09T06:30:11.155Z,99888.45
2018-08-09T06:32:40.426Z,99890.39
2018-08-09T06:35:10.492Z,99879.67
2018-08-09T06:37:39.187Z,99880.09
2018-08-09T06:40:11.211Z,99876.47
2018-08-09T06:42:40.155Z,99877.38
2018-08-09T06:45:08.654Z,99868.52
2018-08-09T06:47:37.195Z,99865.84
2018-08-09T06:50:06.991Z,99865.95
2018-08-09T06:52:35.375Z,99860.55
2018-08-09T06:55:04.295Z,99862.91
2018-08-09T06:57:32.768Z,99865.66
2018-08-09T07:00:01.223Z,99861.08
2018-08-09T07:02:29.728Z,99858.08
2018-08-09T07:04:58.238Z,99851.97
2018-08-09T07:07:26.717Z,99852.94
2018-08-09T07:09:55.368Z,99859.92
2018-08-09T07:12:23.791Z,99860.42
2018-08-09T07:14:52.312Z,99853.71
2018-08-09T07:17:21.014Z,99852.62
2018-08-09T07:19:49.475Z,99853.83
2018-08-09T07:22:17.868Z,99846.70
2018-08-09T07:24:46.328Z,99848.58
2018-08-09T07:27:14.763Z,99848.85
2018-08-09T07:29:43.255Z,99844.64
2018-08-09T07:32:11.760Z,99839.12
2018-08-09T07:34:40.279Z,99838.59
2018-08-09T07:37:08.851Z,99836.30
2018-08-09T07:39:37.706Z,99838.92
2018-08-09T07:42:06.276Z,99825.11
2018-08-09T07:44:34.747Z,99825.59
2018-08-09T07:47:03.275Z,99830.77
2018-08-09T07:49:31.704Z,99832.82
2018-08-09T07:52:00.255Z,99839.00
2018-08-09T07:54:29.187Z,99839.74
2018-08-09T07:56:57.816Z,99836.23
2018-08-09T07:59:26.287Z,99828.72
2018-08-09T08:01:54.795Z,99822.47
2018-08-09T08:04:23.191Z,99817.52
2018-08-09T08:06:51.710Z,99824.79
2018-08-09T08:09:20.136Z,99821.44
2018-08-09T08:11:48.514Z,99820.62
2018-08-09T08:14:16.967Z,99815.05
2018-08-09T08:16:45.663Z,99815.27
2018-08-09T08:19:14.175Z,99818.28
2018-08-09T08:21:42.631Z,99811.00
2018-08-09T08:24:11.415Z,99809.31
2018-08-09T08:26:39.859Z,99800.38
2018-08-09T08:29:08.258Z,99803.37
2018-08-09T08:31:42.450Z,99797.09
2018-08-09T08:34:10.867Z,99798.99
2018-08-09T08:36:39.331Z,99792.59
2018-08-09T08:39:09.609Z,99794.05
2018-08-09T08:41:38.631Z,99798.50
2018-08-09T08:44:07.328Z,99790.99
2018-08-09T08:46:35.799Z,99797.27
2018-08-09T08:49:04.235Z,99790.33
2018-08-09T08:51:32.759Z,99797.03
2018-08-09T08:54:01.184Z,99794.64
2018-08-09T08:56:29.684Z,99799.95
2018-08-09T08:58:58.168Z,99793.65
2018-08-09T09:01:26.830Z,99795.25
2018-08-09T09:03:55.303Z,99789.63
2018-08-09T09:06:23.735Z,99800.11
2018-08-09T09:08:52.429Z,99791.45
2018-08-09T09:11:20.860Z,99785.48
2018-08-09T09:13:50.539Z,99777.44
2018-08-09T09:16:19.007Z,99777.43
2018-08-09T09:18:47.419Z,99766.31
2018-08-09T09:21:15.979Z,99774.84
2018-08-09T09:23:44.543Z,99765.08
2018-08-09T09:26:13.028Z,99748.58
2018-08-09T09:28:41.536Z,99752.30
2018-08-09T09:31:10.162Z,99752.80
2018-08-09T09:33:38.574Z,99753.47
2018-08-09T09:36:07.134Z,99739.20
2018-08-09T09:38:35.715Z,99732.28
2018-08-09T09:41:05.518Z,99723.17
2018-08-09T09:43:34.759Z,99709.23
2018-08-09T09:46:03.251Z,99703.50
2018-08-09T09:48:31.736Z,99696.16
2018-08-09T09:51:00.610Z,99687.40
2018-08-09T09:53:29.004Z,99689.87
2018-08-09T09:55:57.557Z,99689.33
2018-08-09T09:58:26.074Z,99682.84
2018-08-09T10:00:59.775Z,99674.41
2018-08-09T10:03:28.216Z,99671.08
2018-08-09T10:05:56.587Z,99663.37
2018-08-09T10:08:25.111Z,99657.41
2018-08-09T10:10:53.615Z,99646.50
2018-08-09T10:13:22.079Z,99647.45
2018-08-09T10:15:50.491Z,99644.75
2018-08-09T10:18:19.180Z,99646.66
2018-08-09T10:20:47.684Z,99633.77
2018-08-09T10:23:16.151Z,99627.17
2018-08-09T10:25:44.655Z,99625.92
2018-08-09T10:28:13.054Z,99629.02
2018-08-09T10:30:41.490Z,99629.66
2018-08-09T10:33:10.026Z,99624.91
2018-08-09T10:35:38.552Z,99633.86
2018-08-09T10:38:07.041Z,99626.61
2018-08-09T10:40:35.593Z,99624.13
2018-08-09T10:43:04.122Z,99623.41
2018-08-09T10:45:32.595Z,99623.91
2018-08-09T10:48:01.171Z,99616.22
2018-08-09T10:50:29.601Z,99614.63
2018-08-09T10:52:57.982Z,99614.64
2018-08-09T10:55:26.395Z,99603.47
2018-08-09T10:57:54.867Z,99599.09
2018-08-09T11:00:23.503Z,99592.49
2018-08-09T11:02:52.051Z,99588.05
2018-08-09T11:05:20.504Z,99589.27
2018-08-09T11:07:48.907Z,99574.69
2018-08-09T11:10:17.739Z,99570.34
2018-08-09T11:12:46.107Z,99557.16
2018-08-09T11:15:14.566Z,99550.23
2018-08-09T11:17:43.235Z,99555.94
2018-08-09T11:20:11.971Z,99547.36
2018-08-09T11:22:40.376Z,99538.45
2018-08-09T11:25:09.703Z,99528.71
2018-08-09T11:27:38.263Z,99529.55
2018-08-09T11:30:06.868Z,99515.81
2018-08-09T11:32:36.215Z,99509.74
2018-08-09T11:35:05.177Z,99502.47
2018-08-09T11:37:33.811Z,99495.20
2018-08-09T11:40:02.527Z,99488.87
2018-08-09T11:42:31.386Z,99494.45
2018-08-09T11:44:59.868Z,99497.84
2018-08-09T11:47:29.248Z,99500.13
2018-08-09T11:49:57.787Z,99502.09
2018-08-09T11:52:26.271Z,99499.07
2018-08-09T11:54:54.976Z,99492.34
2018-08-09T11:57:23.426Z,99492.32
2018-08-09T11:59:52.075Z,99498.36
2018-08-09T12:02:20.587Z,99500.89
2018-08-09T12:04:49.171Z,99498.84
2018-08-09T12:07:17.622Z,99507.09
2018-08-09T12:09:46.308Z,99497.61
2018-08-09T12:12:14.855Z,99493.84
2018-08-09T12:14:43.434Z,99494.73
2018-08-09T12:17:12.033Z,99503.31
2018-08-09T12:19:40.524Z,99487.39
2018-08-09T12:22:08.919Z,99491.02
2018-08-09T12:24:37.375Z,99498.39
2018-08-09T12:27:05.959Z,99510.50
2018-08-09T12:29:34.375Z,99538.91
2018-08-09T12:32:02.904Z,99572.86
2018-08-09T12:34:31.384Z,99718.52
2018-08-09T12:37:00.324Z,99750.28
2018-08-09T12:39:29.028Z,99729.86
2018-08-09T12:41:57.703Z,99728.14
2018-08-09T12:44:26.375Z,99759.48
2018-08-09T12:46:54.880Z,99762.47
2018-08-09T12:49:23.371Z,99766.95
2018-08-09T12:51:51.996Z,99794.48
2018-08-09T12:54:20.487Z,99819.41
2018-08-09T12:56:48.950Z,99834.41
2018-08-09T12:59:21.403Z,99844.48
2018-08-09T13:01:49.928Z,99868.68
2018-08-09T13:04:18.410Z,99849.26
2018-08-09T13:06:46.863Z,99851.56
2018-08-09T13:09:15.290Z,99853.12
2018-08-09T13:11:43.847Z,99859.11
2018-08-09T13:14:12.639Z,99866.36
2018-08-09T13:16:41.035Z,99869.19
2018-08-09T13:19:09.606Z,99852.11
2018-08-09T13:21:38.374Z,99830.80
2018-08-09T13:24:06.808Z,99831.77
2018-08-09T13:26:35.427Z,99813.86
2018-08-09T13:29:04.667Z,99807.45
2018-08-09T13:31:33.154Z,99802.03
2018-08-09T13:34:02.019Z,99790.84
2018-08-09T13:36:30.848Z,99785.98
2018-08-09T13:38:59.410Z,99774.72
2018-08-09T13:41:27.975Z,99779.20
2018-08-09T13:43:56.851Z,99785.40
2018-08-09T13:46:25.462Z,99767.05
2018-08-09T13:48:54.027Z,99760.41
2018-08-09T13:51:22.806Z,99759.77
2018-08-09T13:53:51.403Z,99774.63
2018-08-09T13:56:19.895Z,99769.00
2018-08-09T13:58:49.331Z,99781.89
2018-08-09T14:01:17.787Z,99767.86
2018-08-09T14:03:46.259Z,99754.98
2018-08-09T14:06:14.842Z,99764.45
2018-08-09T14:08:44.125Z,99756.74
2018-08-09T14:11:14.335Z,99762.66
2018-08-09T14:13:44.916Z,99767.91
2018-08-09T14:16:13.961Z,99775.33
2018-08-09T14:18:42.547Z,99769.44
2018-08-09T14:21:11.086Z,99767.30
2018-08-09T14:23:40.483Z,99782.24
2018-08-09T14:26:08.998Z,99784.58
2018-08-09T14:28:37.692Z,99782.20
2018-08-09T14:31:06.229Z,99776.02
2018-08-09T14:33:34.973Z,99774.53
2018-08-09T14:36:03.595Z,99779.37
2018-08-09T14:38:32.133Z,99793.28
2018-08-09T14:41:00.736Z,99794.95
2018-08-09T14:43:29.251Z,99788.36
2018-08-09T14:45:57.675Z,99794.43
2018-08-09T14:48:26.162Z,99781.98
2018-08-09T14:50:54.616Z,99773.88
2018-08-09T14:53:23.309Z,99776.09
2018-08-09T14:55:51.783Z,99793.91
2018-08-09T14:58:20.218Z,99807.77
2018-08-09T15:00:48.663Z,99823.75
2018-08-09T15:03:17.219Z,99813.18
2018-08-09T15:05:45.804Z,99820.07
2018-08-09T15:08:14.439Z,99831.20
2018-08-09T15:10:42.845Z,99837.11
2018-08-09T15:13:11.363Z,99843.63
2018-08-09T15:15:40.083Z,99841.26
2018-08-09T15:18:08.483Z,99844.25
2018-08-09T15:20:36.951Z,99843.94
2018-08-09T15:23:05.628Z,99847.40
2018-08-09T15:25:34.163Z,99846.75
2018-08-09T15:28:02.895Z,99843.94
2018-08-09T15:30:31.376Z,99848.83
2018-08-09T15:32:59.831Z,99866.72
2018-08-09T15:35:28.323Z,99863.05
2018-08-09T15:37:57.149Z,99866.30
2018-08-09T15:40:25.587Z,99872.41
2018-08-09T15:42:54.134Z,99877.83
2018-08-09T15:45:22.776Z,99870.25
2018-08-09T15:47:51.319Z,99881.09
2018-08-09T15:50:20.547Z,99871.00
2018-08-09T15:52:49.070Z,99866.42
2018-08-09T15:55:18.535Z,99869.64
2018-08-09T15:57:47.235Z,99869.98
2018-08-09T16:00:20.015Z,99864.41
2018-08-09T16:02:48.639Z,99864.09
2018-08-09T16:05:17.293Z,99854.71
2018-08-09T16:07:46.495Z,99857.25
2018-08-09T16:10:16.092Z,99856.87
2018-08-09T16:12:44.877Z,99864.35
2018-08-09T16:15:18.780Z,99861.20
2018-08-09T16:17:48.184Z,99860.94
2018-08-09T16:20:16.936Z,99861.99
2018-08-09T16:22:46.144Z,99866.92
2018-08-09T16:25:15.916Z,99862.48
2018-08-09T16:27:44.483Z,99872.58
2018-08-09T16:30:17.213Z,99873.08
2018-08-09T16:32:45.735Z,99875.31
2018-08-09T16:35:14.495Z,99870.66
2018-08-09T16:37:44.051Z,99868.22
2018-08-09T16:40:16.181Z,99862.34
2018-08-09T16:42:44.855Z,99867.28
2018-08-09T16:46:16.926Z,99866.42
2018-08-09T16:48:46.097Z,99851.47
2018-08-09T16:51:14.737Z,99855.34
2018-08-09T16:53:43.210Z,99856.66
2018-08-09T16:56:12.131Z,99847.80
2018-08-09T16:58:40.634Z,99851.15
2018-08-09T17:01:09.219Z,99861.46
2018-08-09T17:03:37.814Z,99869.73
2018-08-09T17:06:06.718Z,99866.94
2018-08-09T17:08:35.277Z,99879.23
2018-08-09T17:11:03.944Z,99887.50
2018-08-09T17:13:32.446Z,99887.09
2018-08-09T17:16:01.056Z,99882.08
2018-08-09T17:18:29.748Z,99871.05
2018-08-09T17:20:58.317Z,99875.44
2018-08-09T17:23:27.110Z,99877.50
2018-08-09T17:25:55.829Z,99868.58
2018-08-09T17:28:24.351Z,99869.49
2018-08-09T17:30:53.231Z,99869.20
2018-08-09T17:33:22.307Z,99872.77
2018-08-09T17:35:51.015Z,99882.44
2018-08-09T17:38:19.603Z,99881.16
2018-08-09T17:40:48.260Z,99881.56
2018-08-09T17:43:16.937Z,99881.22
2018-08-09T17:45:45.516Z,99889.94
2018-08-09T17:48:14.042Z,99887.51
2018-08-09T17:50:42.812Z,99895.03
2018-08-09T17:53:11.363Z,99892.52
2018-08-09T17:55:39.895Z,99892.60
2018-08-09T17:58:08.570Z,99886.15
2018-08-09T18:00:37.286Z,99896.47
2018-08-09T18:03:06.160Z,99903.04
2018-08-09T18:05:34.823Z,99906.55
2018-08-09T18:08:03.509Z,99908.86
2018-08-09T18:10:33.748Z,99908.49
2018-08-09T18:13:03.362Z,99915.88
2018-08-09T18:15:32.342Z,99918.86
2018-08-09T18:18:01.803Z,99917.42
2018-08-09T18:20:33.498Z,99924.23
2018-08-09T18:23:02.426Z,99933.34
2018-08-09T18:25:31.310Z,99928.08
2018-08-09T18:28:01.208Z,99941.29
2018-08-09T18:30:30.090Z,99947.08
2018-08-09T18:32:59.038Z,99954.56
2018-08-09T18:35:28.969Z,99955.23
2018-08-09T18:37:58.102Z,99954.05
2018-08-09T18:40:27.998Z,99962.20
2018-08-09T18:42:57.223Z,99960.99
2018-08-09T18:45:32.887Z,99968.41
2018-08-09T18:48:03.745Z,99969.89
2018-08-09T18:50:33.177Z,99981.16
2018-08-09T18:53:02.339Z,99981.09
2018-08-09T18:55:31.259Z,99978.59
2018-08-09T18:58:01.439Z,99983.30
2018-08-09T19:00:31.045Z,99989.89
2018-08-09T19:03:01.812Z,99986.45
2018-08-09T19:05:31.765Z,99986.64
2018-08-09T19:08:01.356Z,99993.83
2018-08-09T19:10:31.616Z,99995.38
2018-08-09T19:13:00.836Z,99989.73
2018-08-09T19:15:29.939Z,99988.45
2018-08-09T19:17:59.314Z,99992.36
2018-08-09T19:20:31.698Z,99990.11
2018-08-09T19:23:01.214Z,99996.18
2018-08-09T19:25:31.504Z,100008.62
2018-08-09T19:28:00.498Z,100012.22
2018-08-09T19:30:31.118Z,100011.47
2018-08-09T19:33:02.694Z,100027.61
2018-08-09T19:35:32.409Z,100029.11
2018-08-09T19:38:01.417Z,100029.98
2018-08-09T19:40:31.060Z,100039.79
2018-08-09T19:43:00.353Z,100044.41
2018-08-09T19:45:29.602Z,100047.75
2018-08-09T19:47:58.622Z,100063.45
2018-08-09T19:50:27.940Z,100061.51
2018-08-09T19:52:56.960Z,100059.45
2018-08-09T19:55:27.226Z,100063.22
2018-08-09T19:57:57.354Z,100071.85
2018-08-09T20:00:29.346Z,100076.51
2018-08-09T20:02:58.452Z,100087.30
2018-08-09T20:05:28.050Z,100089.42
2018-08-09T20:07:58.354Z,100083.47
2018-08-09T20:10:27.825Z,100091.64
2018-08-09T20:12:57.114Z,100093.76
2018-08-09T20:15:26.555Z,100093.39
2018-08-09T20:17:57.092Z,100095.61
2018-08-09T20:20:26.778Z,100104.34
2018-08-09T20:22:55.874Z,100110.16
2018-08-09T20:25:40.118Z,100115.86
2018-08-09T20:28:09.101Z,100118.22
2018-08-09T20:30:38.164Z,100123.77
2018-08-09T20:33:07.266Z,100121.94
2018-08-09T20:35:36.521Z,100134.52
2018-08-09T20:38:05.317Z,100137.06
2018-08-09T20:40:34.014Z,100134.00
2018-08-09T20:43:02.693Z,100134.37
2018-08-09T20:45:31.487Z,100137.57
2018-08-09T20:48:00.273Z,100130.91
2018-08-09T20:50:29.308Z,100132.28
2018-08-09T20:52:58.107Z,100147.15
2018-08-09T20:55:26.757Z,100138.07
2018-08-09T20:57:56.117Z,100142.76
2018-08-09T21:00:28.245Z,100140.16
2018-08-09T21:02:58.025Z,100145.30
2018-08-09T21:05:30.344Z,100150.64
2018-08-09T21:07:59.123Z,100142.55
2018-08-09T21:10:27.870Z,100138.05
2018-08-09T21:12:56.592Z,100143.38
2018-08-09T21:15:25.187Z,100141.16
2018-08-09T21:17:53.602Z,100158.39
2018-08-09T21:20:22.436Z,100152.73
2018-08-09T21:22:51.384Z,100153.17
2018-08-09T21:25:20.235Z,100154.98
2018-08-09T21:27:49.343Z,100155.11
2018-08-09T21:30:20.074Z,100155.96
2018-08-09T21:32:49.122Z,100158.66
2018-08-09T21:35:17.659Z,100170.71
2018-08-09T21:37:46.567Z,100184.43
2018-08-09T21:40:15.727Z,100187.31
2018-08-09T21:42:44.195Z,100196.95
2018-08-09T21:45:15.604Z,100197.02
2018-08-09T21:47:44.039Z,100208.59
2018-08-09T21:50:16.031Z,100226.01
2018-08-09T21:52:44.467Z,100241.60
2018-08-09T21:55:13.399Z,100242.25
2018-08-09T21:57:43.040Z,100241.91
2018-08-09T22:00:50.104Z,100242.83
2018-08-09T22:03:21.073Z,100251.88
2018-08-09T22:05:54.801Z,100268.74
2018-08-09T22:08:28.568Z,100270.98
2018-08-09T22:11:02.931Z,100281.61
2018-08-09T22:13:36.775Z,100288.20
2018-08-09T22:16:11.171Z,100285.25
2018-08-09T22:18:45.478Z,100296.34
2018-08-09T22:21:19.306Z,100289.72
2018-08-09T22:23:48.280Z,100297.46
2018-08-09T22:26:16.853Z,100306.94
2018-08-09T22:28:45.855Z,100312.95
2018-08-09T22:31:15.048Z,100322.77
2018-08-09T22:33:43.627Z,100323.04
2018-08-09T22:36:12.118Z,100320.02
2018-08-09T22:38:40.611Z,100328.87
2018-08-09T22:41:09.054Z,100333.94
2018-08-09T22:43:37.583Z,100340.72
2018-08-09T22:46:06.359Z,100348.09
2018-08-09T22:48:34.803Z,100356.01
2018-08-09T22:51:03.309Z,100359.23
2018-08-09T22:53:31.859Z,100360.16
2018-08-09T22:56:00.303Z,100366.14
2018-08-09T22:58:28.726Z,100377.14
2018-08-09T23:00:57.473Z,100381.98
2018-08-09T23:03:26.103Z,100383.98
2018-08-09T23:05:54.555Z,100404.91
2018-08-09T23:08:23.013Z,100411.27
2018-08-09T23:10:51.575Z,100424.67
2018-08-09T23:13:20.055Z,100424.64
2018-08-09T23:15:48.703Z,100436.70
2018-08-09T23:18:17.251Z,100441.30
2018-08-09T23:20:45.751Z,100433.83
2018-08-09T23:23:14.191Z,100445.42
2018-08-09T23:25:42.700Z,100447.37
2018-08-09T23:28:11.115Z,100457.16
2018-08-09T23:30:39.956Z,100471.63
2018-08-09T23:33:08.392Z,100480.34
2018-08-09T23:35:36.939Z,100475.61
2018-08-09T23:38:05.467Z,100475.36
2018-08-09T23:40:33.931Z,100472.25
2018-08-09T23:43:02.405Z,100466.98
2018-08-09T23:45:30.935Z,100471.13
2018-08-09T23:47:59.478Z,100473.25
2018-08-09T23:50:27.878Z,100479.54
2018-08-09T23:52:56.443Z,100487.68
2018-08-09T23:55:24.999Z,100492.31
2018-08-09T23:57:53.467Z,100501.45
